createdAt,value
2018-12-14T00:01:34.844Z,30.83
2018-12-14T00:04:05.928Z,25.77
2018-12-14T00:06:36.940Z,25.80
2018-12-14T00:09:06.393Z,26.60
2018-12-14T00:11:37.535Z,22.70
2018-12-14T00:14:06.571Z,26.60
2018-12-14T00:16:35.722Z,29.07
2018-12-14T00:19:04.771Z,30.30
2018-12-14T00:21:33.840Z,29.07
2018-12-14T00:24:02.861Z,25.13
2018-12-14T00:26:31.915Z,30.27
2018-12-14T00:29:00.949Z,27.03
2018-12-14T00:31:29.979Z,19.30
2018-12-14T00:33:58.964Z,31.77
2018-12-14T00:36:28.013Z,26.87
2018-12-14T00:38:57.109Z,29.37
2018-12-14T00:41:26.102Z,26.20
2018-12-14T00:43:55.089Z,27.43
2018-12-14T00:46:24.168Z,25.57
2018-12-14T00:48:53.188Z,21.93
2018-12-14T00:51:22.250Z,28.53
2018-12-14T00:53:51.292Z,28.37
2018-12-14T00:56:20.357Z,25.57
2018-12-14T00:58:49.310Z,26.63
2018-12-14T01:01:18.345Z,24.80
2018-12-14T01:03:47.484Z,20.77
2018-12-14T01:06:16.709Z,28.23
2018-12-14T01:08:45.905Z,28.70
2018-12-14T01:11:15.044Z,24.20
2018-12-14T01:13:44.151Z,23.67
2018-12-14T01:16:13.322Z,24.63
2018-12-14T01:18:42.404Z,28.93
2018-12-14T01:21:11.462Z,22.13
2018-12-14T01:23:40.515Z,28.63
2018-12-14T01:26:09.609Z,18.43
2018-12-14T01:28:38.640Z,24.17
2018-12-14T01:31:07.702Z,23.23
2018-12-14T01:33:36.735Z,20.87
2018-12-14T01:36:05.673Z,25.57
2018-12-14T01:38:34.695Z,16.63
2018-12-14T01:41:03.717Z,27.47
2018-12-14T01:43:32.847Z,25.43
2018-12-14T01:46:01.847Z,24.20
2018-12-14T01:48:30.953Z,30.13
2018-12-14T01:51:00.085Z,28.07
2018-12-14T01:53:29.122Z,25.00
2018-12-14T01:55:58.191Z,20.83
2018-12-14T01:58:27.313Z,22.50
2018-12-14T02:00:56.345Z,29.03
2018-12-14T02:03:25.489Z,8.97
2018-12-14T02:05:54.423Z,24.03
2018-12-14T02:08:23.672Z,28.67
2018-12-14T02:10:53.804Z,29.10
2018-12-14T02:13:22.820Z,25.87
2018-12-14T02:15:51.940Z,25.33
2018-12-14T02:18:21.096Z,21.90
2018-12-14T02:20:50.061Z,24.07
2018-12-14T02:23:19.123Z,29.90
2018-12-14T02:25:48.404Z,25.37
2018-12-14T02:28:17.501Z,26.67
2018-12-14T02:30:46.675Z,28.47
2018-12-14T02:33:15.874Z,29.00
2018-12-14T02:35:45.039Z,24.97
2018-12-14T02:38:14.035Z,29.97
2018-12-14T02:40:43.062Z,22.23
2018-12-14T02:43:12.104Z,27.17
2018-12-14T02:45:41.103Z,24.93
2018-12-14T02:48:10.062Z,27.80
2018-12-14T02:50:39.017Z,33.10
2018-12-14T02:53:08.467Z,29.37
2018-12-14T02:55:37.520Z,21.70
2018-12-14T02:58:06.542Z,28.80
2018-12-14T03:00:35.764Z,24.20
2018-12-14T03:03:04.950Z,23.90
2018-12-14T03:05:33.975Z,25.13
2018-12-14T03:08:03.136Z,31.33
2018-12-14T03:10:32.262Z,26.57
2018-12-14T03:13:01.359Z,25.83
2018-12-14T03:15:30.520Z,21.00
2018-12-14T03:17:59.641Z,24.17
2018-12-14T03:20:28.705Z,25.63
2018-12-14T03:22:57.728Z,31.10
2018-12-14T03:25:26.782Z,21.77
2018-12-14T03:27:55.837Z,27.80
2018-12-14T03:30:24.909Z,26.73
2018-12-14T03:32:53.994Z,27.07
2018-12-14T03:35:23.132Z,30.30
2018-12-14T03:37:52.169Z,24.50
2018-12-14T03:40:21.128Z,23.07
2018-12-14T03:42:50.202Z,23.87
2018-12-14T03:45:19.225Z,24.17
2018-12-14T03:47:48.303Z,25.83
2018-12-14T03:50:17.294Z,22.70
2018-12-14T03:52:46.314Z,21.70
2018-12-14T03:55:15.348Z,27.90
2018-12-14T03:57:44.623Z,18.50
2018-12-14T04:00:13.760Z,20.87
2018-12-14T04:02:42.782Z,29.30
2018-12-14T04:05:11.943Z,21.77
2018-12-14T04:07:41.027Z,31.07
2018-12-14T04:10:09.985Z,21.97
2018-12-14T04:12:41.886Z,22.40
2018-12-14T04:15:10.017Z,19.53
2018-12-14T04:17:39.072Z,23.87
2018-12-14T04:20:08.273Z,30.90
2018-12-14T04:22:37.378Z,26.70
2018-12-14T04:25:06.613Z,17.97
2018-12-14T04:27:35.721Z,26.40
2018-12-14T04:30:05.320Z,22.07
2018-12-14T04:32:34.539Z,22.50
2018-12-14T04:35:05.323Z,23.50
2018-12-14T04:37:34.351Z,24.33
2018-12-14T04:40:03.508Z,24.67
2018-12-14T04:42:32.716Z,24.97
2018-12-14T04:45:01.874Z,26.87
2018-12-14T04:47:31.188Z,25.37
2018-12-14T04:50:00.214Z,20.07
2018-12-14T04:52:29.313Z,28.93
2018-12-14T04:54:58.233Z,21.83
2018-12-14T04:57:27.261Z,28.03
2018-12-14T04:59:56.464Z,23.07
2018-12-14T05:02:25.573Z,23.47
2018-12-14T05:04:54.862Z,23.20
2018-12-14T05:07:23.931Z,21.83
2018-12-14T05:09:52.971Z,23.27
2018-12-14T05:12:21.962Z,23.67
2018-12-14T05:14:51.286Z,17.20
2018-12-14T05:17:20.481Z,29.10
2018-12-14T05:19:49.546Z,26.50
2018-12-14T05:22:18.520Z,22.37
2018-12-14T05:24:47.544Z,24.40
2018-12-14T05:27:16.688Z,23.57
2018-12-14T05:29:45.984Z,25.53
2018-12-14T05:32:15.031Z,22.33
2018-12-14T05:34:44.100Z,23.50
2018-12-14T05:37:13.248Z,25.67
2018-12-14T05:39:42.378Z,27.10
2018-12-14T05:42:11.472Z,29.70
2018-12-14T05:44:40.532Z,22.77
2018-12-14T05:47:09.514Z,27.17
2018-12-14T05:49:38.741Z,24.00
2018-12-14T05:52:09.733Z,29.77
2018-12-14T05:54:38.743Z,23.73
2018-12-14T05:57:07.821Z,21.53
2018-12-14T05:59:36.895Z,26.37
2018-12-14T06:02:05.975Z,28.23
2018-12-14T06:04:34.991Z,18.67
2018-12-14T06:07:05.338Z,24.83
2018-12-14T06:09:34.508Z,29.73
2018-12-14T06:12:04.120Z,26.40
2018-12-14T06:14:33.208Z,23.63
2018-12-14T06:17:02.235Z,27.53
2018-12-14T06:19:31.296Z,24.30
2018-12-14T06:22:00.403Z,26.57
2018-12-14T06:24:29.413Z,23.37
2018-12-14T06:26:58.589Z,25.93
2018-12-14T06:29:27.554Z,28.17
2018-12-14T06:31:56.630Z,27.23
2018-12-14T06:34:25.684Z,31.03
2018-12-14T06:36:55.558Z,25.67
2018-12-14T06:39:24.860Z,26.80
2018-12-14T06:41:54.329Z,26.13
2018-12-14T06:44:23.365Z,22.40
2018-12-14T06:46:52.625Z,29.53
2018-12-14T06:49:21.720Z,28.57
2018-12-14T06:51:50.803Z,28.83
2018-12-14T06:54:20.082Z,29.70
2018-12-14T06:56:49.311Z,28.20
2018-12-14T06:59:18.801Z,27.43
2018-12-14T07:01:48.121Z,26.63
2018-12-14T07:04:17.823Z,26.43
2018-12-14T07:06:46.941Z,25.40
2018-12-14T07:09:15.944Z,25.97
2018-12-14T07:11:45.029Z,22.97
2018-12-14T07:14:14.207Z,28.23
2018-12-14T07:16:44.070Z,26.30
2018-12-14T07:19:13.185Z,28.33
2018-12-14T07:21:42.353Z,23.57
2018-12-14T07:24:11.758Z,30.03
2018-12-14T07:26:41.116Z,24.33
2018-12-14T07:29:10.251Z,27.17
2018-12-14T07:31:39.358Z,30.47
2018-12-14T07:34:08.449Z,27.53
2018-12-14T07:36:37.447Z,24.57
2018-12-14T07:39:07.144Z,27.27
2018-12-14T07:41:39.088Z,19.67
2018-12-14T07:44:08.085Z,27.20
2018-12-14T07:46:37.171Z,29.30
2018-12-14T07:49:06.223Z,33.57
2018-12-14T07:51:35.307Z,29.40
2018-12-14T07:54:04.460Z,21.63
2018-12-14T07:56:33.633Z,19.90
2018-12-14T07:59:03.733Z,24.73
2018-12-14T08:01:32.996Z,25.83
2018-12-14T08:04:02.138Z,29.17
2018-12-14T08:06:31.209Z,25.17
2018-12-14T08:09:00.252Z,22.47
2018-12-14T08:11:29.294Z,25.30
2018-12-14T08:13:58.395Z,22.63
2018-12-14T08:16:27.968Z,23.67
2018-12-14T08:18:57.062Z,26.80
2018-12-14T08:21:26.204Z,28.17
2018-12-14T08:23:55.308Z,16.93
2018-12-14T08:26:24.317Z,25.57
2018-12-14T08:28:53.379Z,27.47
2018-12-14T08:31:22.396Z,31.73
2018-12-14T08:33:51.505Z,27.40
2018-12-14T08:36:20.553Z,27.83
2018-12-14T08:38:50.210Z,29.83
2018-12-14T08:41:19.188Z,30.13
2018-12-14T08:43:48.277Z,33.13
2018-12-14T08:46:17.311Z,26.40
2018-12-14T08:48:46.414Z,26.83
2018-12-14T08:51:15.553Z,24.90
2018-12-14T08:53:44.791Z,25.97
2018-12-14T08:56:13.799Z,24.43
2018-12-14T08:58:42.753Z,21.47
2018-12-14T09:01:11.787Z,20.80
2018-12-14T09:03:40.952Z,21.60
2018-12-14T09:06:10.162Z,20.67
2018-12-14T09:08:39.134Z,18.47
2018-12-14T09:11:08.203Z,23.57
2018-12-14T09:13:37.171Z,26.33
2018-12-14T09:16:06.205Z,25.80
2018-12-14T09:18:35.404Z,25.23
2018-12-14T09:21:04.343Z,32.33
2018-12-14T09:23:33.339Z,28.30
2018-12-14T09:26:02.639Z,26.40
2018-12-14T09:28:31.835Z,25.57
2018-12-14T09:31:00.847Z,25.97
2018-12-14T09:33:29.998Z,25.03
2018-12-14T09:35:59.978Z,28.63
2018-12-14T09:38:29.054Z,23.83
2018-12-14T09:40:58.205Z,25.77
2018-12-14T09:43:27.642Z,24.77
2018-12-14T09:45:56.678Z,24.67
2018-12-14T09:48:26.914Z,26.07
2018-12-14T09:50:55.923Z,24.07
2018-12-14T09:53:25.024Z,27.07
2018-12-14T09:55:54.092Z,24.83
2018-12-14T09:58:23.117Z,24.03
2018-12-14T10:00:52.198Z,28.40
2018-12-14T10:03:21.163Z,19.27
2018-12-14T10:05:50.187Z,24.57
2018-12-14T10:08:19.564Z,23.27
2018-12-14T10:10:49.004Z,22.93
2018-12-14T10:13:18.050Z,22.33
2018-12-14T10:15:47.073Z,22.40
2018-12-14T10:18:17.162Z,24.80
2018-12-14T10:20:46.217Z,23.63
2018-12-14T10:23:15.393Z,23.03
2018-12-14T10:25:44.445Z,24.23
2018-12-14T10:28:13.552Z,23.50
2018-12-14T10:30:42.640Z,23.90
2018-12-14T10:33:11.750Z,27.03
2018-12-14T10:35:40.758Z,25.07
2018-12-14T10:38:13.089Z,25.13
2018-12-14T10:40:42.183Z,27.83
2018-12-14T10:43:11.518Z,23.30
2018-12-14T10:45:40.991Z,27.73
2018-12-14T10:48:10.012Z,28.30
2018-12-14T10:50:39.915Z,23.00
2018-12-14T10:53:12.274Z,30.50
2018-12-14T10:55:42.254Z,24.80
2018-12-14T10:58:11.392Z,25.47
2018-12-14T11:00:45.704Z,22.23
2018-12-14T11:03:14.701Z,26.20
2018-12-14T11:05:43.695Z,17.67
2018-12-14T11:08:12.769Z,28.10
2018-12-14T11:10:41.808Z,29.23
2018-12-14T11:13:10.913Z,23.90
2018-12-14T11:15:39.947Z,30.80
2018-12-14T11:18:09.039Z,29.03
2018-12-14T11:20:38.097Z,25.60
2018-12-14T11:23:07.212Z,25.43
2018-12-14T11:25:36.263Z,21.90
2018-12-14T11:28:05.319Z,25.17
2018-12-14T11:30:34.699Z,26.03
2018-12-14T11:33:03.669Z,23.77
2018-12-14T11:35:32.698Z,24.93
2018-12-14T11:38:01.729Z,24.80
2018-12-14T11:40:30.854Z,20.80
2018-12-14T11:42:59.806Z,24.57
2018-12-14T11:45:28.906Z,23.90
2018-12-14T11:47:58.034Z,29.73
2018-12-14T11:50:27.069Z,24.30
2018-12-14T11:52:56.759Z,23.67
2018-12-14T11:55:25.931Z,22.20
2018-12-14T11:57:55.044Z,21.17
2018-12-14T12:00:24.121Z,24.77
2018-12-14T12:02:53.179Z,28.93
2018-12-14T12:05:22.149Z,19.00
2018-12-14T12:07:51.615Z,25.20
2018-12-14T12:10:20.791Z,23.80
2018-12-14T12:12:49.879Z,30.93
2018-12-14T12:15:19.879Z,24.67
2018-12-14T12:17:49.630Z,19.27
2018-12-14T12:20:19.775Z,22.07
2018-12-14T12:22:48.838Z,18.60
2018-12-14T12:25:17.881Z,23.33
2018-12-14T12:27:46.933Z,24.93
2018-12-14T12:30:16.055Z,29.07
2018-12-14T12:32:45.079Z,23.13
2018-12-14T12:35:14.289Z,23.40
2018-12-14T12:37:43.284Z,27.03
2018-12-14T12:40:12.300Z,22.47
2018-12-14T12:42:41.663Z,27.10
2018-12-14T12:45:10.810Z,20.57
2018-12-14T12:47:39.863Z,21.67
2018-12-14T12:50:09.057Z,26.33
2018-12-14T12:52:38.178Z,26.13
2018-12-14T12:55:07.217Z,21.00
2018-12-14T12:57:40.199Z,23.97
2018-12-14T13:00:09.259Z,18.27
2018-12-14T13:02:38.365Z,22.13
2018-12-14T13:05:07.402Z,28.10
2018-12-14T13:07:36.707Z,22.77
2018-12-14T13:10:06.263Z,21.77
2018-12-14T13:12:35.259Z,24.63
2018-12-14T13:15:05.279Z,26.80
2018-12-14T13:17:34.417Z,31.53
2018-12-14T13:20:03.780Z,22.93
2018-12-14T13:22:33.535Z,28.53
2018-12-14T13:25:02.534Z,21.80
2018-12-14T13:27:31.778Z,25.03
2018-12-14T13:30:00.813Z,25.70
2018-12-14T13:32:29.994Z,22.07
2018-12-14T13:34:59.015Z,24.63
2018-12-14T13:37:28.145Z,32.67
2018-12-14T13:42:32.953Z,24.23
2018-12-14T13:45:01.951Z,27.03
2018-12-14T13:47:32.096Z,24.47
2018-12-14T13:50:01.210Z,28.30
2018-12-14T13:52:30.371Z,17.17
2018-12-14T13:54:59.367Z,23.20
2018-12-14T13:57:28.447Z,23.50
2018-12-14T13:59:58.061Z,25.80
2018-12-14T14:02:27.173Z,25.77
2018-12-14T14:04:57.348Z,25.13
2018-12-14T14:07:26.345Z,21.33
2018-12-14T14:09:55.285Z,19.53
2018-12-14T14:12:30.644Z,20.93
2018-12-14T14:14:55.305Z,21.87
2018-12-14T14:17:24.391Z,20.20
2018-12-14T14:19:53.407Z,19.13
2018-12-14T14:22:22.906Z,21.67
2018-12-14T14:24:51.923Z,25.43
2018-12-14T14:27:21.824Z,20.03
2018-12-14T14:29:50.763Z,25.73
2018-12-14T14:32:19.884Z,27.70
2018-12-14T14:34:48.898Z,23.30
2018-12-14T14:37:17.931Z,20.70
2018-12-14T14:39:46.944Z,23.20
2018-12-14T14:42:16.130Z,23.87
2018-12-14T14:44:45.155Z,20.50
2018-12-14T14:47:14.321Z,24.00
2018-12-14T14:49:43.307Z,19.73
2018-12-14T14:52:12.428Z,25.43
2018-12-14T14:54:41.497Z,23.73
2018-12-14T14:57:10.475Z,26.03
2018-12-14T14:59:39.564Z,19.40
2018-12-14T15:02:09.718Z,19.60
2018-12-14T15:04:38.742Z,22.70
2018-12-14T15:07:07.701Z,21.07
2018-12-14T15:09:36.650Z,19.20
2018-12-14T15:12:05.703Z,21.50
2018-12-14T15:14:35.976Z,26.77
2018-12-14T15:17:04.927Z,24.33
2018-12-14T15:19:33.909Z,27.93
2018-12-14T15:22:04.648Z,24.90
2018-12-14T15:24:33.941Z,27.10
2018-12-14T15:27:02.906Z,21.97
2018-12-14T15:29:33.010Z,27.87
2018-12-14T15:32:02.279Z,23.37
2018-12-14T15:34:31.365Z,24.10
2018-12-14T15:37:01.098Z,27.17
2018-12-14T15:39:30.229Z,21.33
2018-12-14T15:41:59.197Z,16.93
2018-12-14T15:44:29.359Z,28.83
2018-12-14T15:46:58.406Z,24.50
2018-12-14T15:49:27.478Z,17.83
2018-12-14T15:51:56.580Z,19.63
2018-12-14T15:54:25.603Z,23.43
2018-12-14T15:56:54.668Z,16.83
2018-12-14T15:59:23.597Z,20.17
2018-12-14T16:01:55.655Z,18.43
2018-12-14T16:04:24.770Z,20.57
2018-12-14T16:06:56.807Z,16.93
2018-12-14T16:09:25.821Z,17.63
2018-12-14T16:11:54.872Z,25.50
2018-12-14T16:14:24.144Z,16.17
2018-12-14T16:16:53.284Z,20.87
2018-12-14T16:19:22.401Z,20.77
2018-12-14T16:21:51.373Z,19.83
2018-12-14T16:24:20.434Z,17.30
2018-12-14T16:26:50.021Z,15.50
2018-12-14T16:29:19.081Z,17.30
2018-12-14T16:31:48.434Z,18.53
2018-12-14T16:34:17.388Z,19.17
2018-12-14T16:36:46.462Z,16.00
2018-12-14T16:39:15.613Z,21.80
2018-12-14T16:41:44.884Z,22.17
2018-12-14T16:44:14.020Z,18.57
2018-12-14T16:46:43.328Z,18.10
2018-12-14T16:49:12.445Z,15.13
2018-12-14T16:51:41.613Z,16.00
2018-12-14T16:54:10.720Z,20.20
2018-12-14T16:56:39.763Z,20.70
2018-12-14T16:59:08.996Z,15.67
2018-12-14T17:01:37.986Z,17.60
2018-12-14T17:04:08.106Z,17.63
2018-12-14T17:06:37.304Z,16.80
2018-12-14T17:09:07.025Z,14.63
2018-12-14T17:11:38.504Z,17.20
2018-12-14T17:14:07.513Z,15.73
2018-12-14T17:16:36.540Z,17.63
2018-12-14T17:19:05.588Z,9.27
2018-12-14T17:21:34.760Z,17.67
2018-12-14T17:24:03.739Z,17.77
2018-12-14T17:26:32.846Z,15.60
2018-12-14T17:29:02.261Z,14.97
2018-12-14T17:31:31.287Z,14.50
2018-12-14T17:34:00.386Z,14.50
2018-12-14T17:36:29.521Z,14.53
2018-12-14T17:38:58.559Z,15.17
2018-12-14T17:41:27.825Z,18.53
2018-12-14T17:43:56.806Z,13.63
2018-12-14T17:46:26.816Z,13.67
2018-12-14T17:48:55.848Z,15.10
2018-12-14T17:51:24.844Z,18.87
2018-12-14T17:53:53.805Z,13.43
2018-12-14T17:56:22.836Z,13.03
2018-12-14T17:58:51.976Z,17.20
2018-12-14T18:01:20.994Z,13.13
2018-12-14T18:03:49.986Z,17.17
2018-12-14T18:06:19.516Z,11.50
2018-12-14T18:08:48.560Z,17.70
2018-12-14T18:11:17.633Z,14.30
2018-12-14T18:13:46.742Z,15.23
2018-12-14T18:16:16.629Z,16.43
2018-12-14T18:18:45.797Z,14.63
2018-12-14T18:21:14.824Z,12.63
2018-12-14T18:23:43.845Z,17.57
2018-12-14T18:26:12.921Z,14.90
2018-12-14T18:28:41.892Z,13.40
2018-12-14T18:31:10.946Z,17.83
2018-12-14T18:33:39.922Z,18.97
2018-12-14T18:36:08.930Z,20.13
2018-12-14T18:38:37.894Z,18.20
2018-12-14T18:41:06.920Z,20.70
2018-12-14T18:43:35.921Z,13.97
2018-12-14T18:46:04.896Z,16.97
2018-12-14T18:48:34.218Z,15.77
2018-12-14T18:51:03.255Z,13.33
2018-12-14T18:53:33.484Z,9.60
2018-12-14T18:56:02.461Z,13.50
2018-12-14T18:58:31.623Z,11.03
2018-12-14T19:01:00.666Z,13.63
2018-12-14T19:03:29.684Z,13.37
2018-12-14T19:05:58.710Z,15.23
2018-12-14T19:08:27.769Z,14.70
2018-12-14T19:10:56.783Z,15.87
2018-12-14T19:13:25.986Z,12.77
2018-12-14T19:15:59.588Z,14.70
2018-12-14T19:18:26.061Z,15.23
2018-12-14T19:20:55.209Z,15.20
2018-12-14T19:23:24.554Z,18.37
2018-12-14T19:25:53.767Z,11.53
2018-12-14T19:28:22.741Z,20.00
2018-12-14T19:30:51.736Z,19.00
2018-12-14T19:33:20.791Z,18.47
2018-12-14T19:35:49.880Z,17.47
2018-12-14T19:38:18.942Z,17.57
2018-12-14T19:40:47.915Z,16.67
2018-12-14T19:43:17.060Z,17.40
2018-12-14T19:45:46.399Z,15.00
2018-12-14T19:48:15.602Z,16.80
2018-12-14T19:50:44.645Z,15.60
2018-12-14T19:53:13.670Z,20.10
2018-12-14T19:55:42.768Z,18.70
2018-12-14T19:58:11.824Z,22.77
2018-12-14T20:00:40.933Z,18.30
2018-12-14T20:03:09.838Z,16.80
2018-12-14T20:05:39.055Z,20.63
2018-12-14T20:08:08.110Z,16.20
2018-12-14T20:10:37.111Z,19.80
2018-12-14T20:13:06.160Z,21.80
2018-12-14T20:15:35.200Z,18.03
2018-12-14T20:18:04.145Z,20.13
2018-12-14T20:20:33.161Z,19.60
2018-12-14T20:23:02.238Z,18.37
2018-12-14T20:25:31.182Z,17.83
2018-12-14T20:28:00.268Z,21.30
2018-12-14T20:30:29.280Z,18.00
2018-12-14T20:32:58.315Z,20.80
2018-12-14T20:35:27.409Z,20.03
2018-12-14T20:37:56.617Z,22.30
2018-12-14T20:40:25.682Z,19.80
2018-12-14T20:42:54.759Z,21.03
2018-12-14T20:45:23.742Z,18.43
2018-12-14T20:47:52.719Z,23.03
2018-12-14T20:50:21.739Z,14.50
2018-12-14T20:52:50.794Z,17.10
2018-12-14T20:55:19.770Z,15.53
2018-12-14T20:57:48.761Z,14.87
2018-12-14T21:00:17.791Z,13.00
2018-12-14T21:02:46.840Z,16.53
2018-12-14T21:05:15.858Z,18.83
2018-12-14T21:07:44.919Z,15.23
2018-12-14T21:10:13.847Z,15.73
2018-12-14T21:12:43.018Z,14.33
2018-12-14T21:15:12.017Z,16.57
2018-12-14T21:17:41.114Z,16.37
2018-12-14T21:20:10.078Z,18.30
2018-12-14T21:22:39.052Z,19.10
2018-12-14T21:25:08.185Z,20.73
2018-12-14T21:27:37.227Z,16.60
2018-12-14T21:30:07.940Z,19.90
2018-12-14T21:32:36.929Z,15.63
2018-12-14T21:35:06.517Z,16.73
2018-12-14T21:37:35.510Z,20.00
2018-12-14T21:40:05.168Z,18.63
2018-12-14T21:42:34.420Z,16.37
2018-12-14T21:45:03.649Z,20.47
2018-12-14T21:47:32.677Z,22.07
2018-12-14T21:50:01.785Z,16.70
2018-12-14T21:52:30.825Z,11.70
2018-12-14T21:54:59.899Z,15.13
2018-12-14T21:57:28.982Z,15.33
2018-12-14T21:59:58.223Z,24.40
2018-12-14T22:02:27.604Z,19.07
2018-12-14T22:04:56.596Z,19.27
2018-12-14T22:07:25.649Z,17.30
2018-12-14T22:09:54.859Z,16.80
2018-12-14T22:12:24.076Z,18.33
2018-12-14T22:14:53.172Z,16.63
2018-12-14T22:17:22.175Z,16.37
2018-12-14T22:19:51.200Z,15.30
2018-12-14T22:22:20.255Z,15.23
2018-12-14T22:24:49.303Z,15.97
2018-12-14T22:27:18.240Z,14.53
2018-12-14T22:29:47.364Z,15.87
2018-12-14T22:32:17.437Z,16.93
2018-12-14T22:34:46.466Z,16.93
2018-12-14T22:37:15.430Z,19.00
2018-12-14T22:39:44.730Z,16.33
2018-12-14T22:42:13.728Z,17.93
2018-12-14T22:44:42.808Z,17.90
2018-12-14T22:47:11.897Z,10.90
2018-12-14T22:49:40.887Z,19.33
2018-12-14T22:52:10.019Z,15.27
2018-12-14T22:54:39.075Z,19.17
2018-12-14T22:57:08.076Z,21.50
2018-12-14T22:59:37.223Z,20.57
2018-12-14T23:02:06.184Z,17.20
2018-12-14T23:04:35.452Z,17.03
2018-12-14T23:07:04.485Z,18.67
2018-12-14T23:09:33.473Z,20.67
2018-12-14T23:12:02.547Z,18.50
2018-12-14T23:14:31.693Z,19.47
2018-12-14T23:17:00.737Z,15.83
2018-12-14T23:19:29.734Z,17.13
2018-12-14T23:21:58.658Z,24.90
2018-12-14T23:24:28.013Z,19.80
2018-12-14T23:26:57.178Z,23.37
2018-12-14T23:29:26.162Z,25.53
2018-12-14T23:31:55.175Z,20.40
2018-12-14T23:34:24.126Z,16.63
2018-12-14T23:36:53.205Z,22.67
2018-12-14T23:39:22.364Z,19.27
2018-12-14T23:41:51.294Z,18.03
2018-12-14T23:44:20.323Z,22.47
2018-12-14T23:46:49.311Z,27.57
2018-12-14T23:49:18.702Z,21.13
2018-12-14T23:51:47.680Z,24.77
2018-12-14T23:54:16.848Z,19.93
2018-12-14T23:56:45.880Z,23.03
2018-12-14T23:59:14.924Z,19.77
